createdAt,value
2023-02-06T00:01:37.691Z,2.53
2023-02-06T00:04:06.112Z,3.92
2023-02-06T00:06:34.337Z,2.70
2023-02-06T00:09:03.261Z,3.42
2023-02-06T00:11:31.409Z,3.08
2023-02-06T00:13:59.633Z,2.60
2023-02-06T00:16:29.941Z,3.30
2023-02-06T00:19:00.722Z,2.45
2023-02-06T00:21:29.876Z,3.35
2023-02-06T00:24:00.484Z,3.37
2023-02-06T00:26:28.641Z,3.25
2023-02-06T00:28:56.753Z,2.75
2023-02-06T00:31:24.874Z,3.00
2023-02-06T00:33:53.019Z,3.30
2023-02-06T00:36:22.469Z,3.85
2023-02-06T00:38:50.561Z,2.78
2023-02-06T00:41:18.663Z,2.90
2023-02-06T00:43:46.829Z,2.80
2023-02-06T00:46:14.959Z,2.72
2023-02-06T00:48:43.109Z,2.53
2023-02-06T00:51:11.251Z,3.08
2023-02-06T00:53:40.755Z,3.25
2023-02-06T00:56:08.886Z,2.80
2023-02-06T00:58:37.283Z,3.35
2023-02-06T01:01:05.698Z,2.85
2023-02-06T01:03:34.366Z,2.25
2023-02-06T01:06:02.764Z,2.47
2023-02-06T01:08:31.115Z,3.05
2023-02-06T01:11:00.873Z,2.22
2023-02-06T01:15:57.149Z,3.70
2023-02-06T01:18:25.222Z,2.40
2023-02-06T01:20:53.324Z,2.53
2023-02-06T01:23:21.397Z,3.22
2023-02-06T01:25:49.505Z,4.03
2023-02-06T01:28:19.085Z,1.45
2023-02-06T01:30:47.203Z,3.50
2023-02-06T01:33:15.313Z,3.00
2023-02-06T01:35:43.421Z,2.35
2023-02-06T01:38:11.791Z,2.67
2023-02-06T01:40:40.169Z,3.53
2023-02-06T01:43:17.801Z,2.63
2023-02-06T01:45:48.231Z,2.65
2023-02-06T01:48:20.206Z,2.92
2023-02-06T01:50:52.457Z,3.28
2023-02-06T01:53:22.636Z,4.07
2023-02-06T01:55:53.455Z,2.95
2023-02-06T01:58:29.007Z,2.42
2023-02-06T02:00:59.511Z,2.15
2023-02-06T02:03:28.432Z,3.55
2023-02-06T02:06:02.315Z,2.70
2023-02-06T02:08:34.011Z,3.13
2023-02-06T02:11:04.447Z,2.90
2023-02-06T02:13:34.350Z,2.65
2023-02-06T02:16:12.692Z,3.17
2023-02-06T02:18:56.967Z,3.75
2023-02-06T02:22:07.743Z,1.98
2023-02-06T02:24:44.433Z,2.25
2023-02-06T02:27:36.237Z,2.95
2023-02-06T02:30:39.907Z,2.78
2023-02-06T02:33:31.493Z,3.30
2023-02-06T02:36:06.086Z,3.13
2023-02-06T02:38:44.287Z,3.10
2023-02-06T02:41:17.481Z,2.72
2023-02-06T02:43:51.174Z,2.55
2023-02-06T02:46:22.062Z,3.03
2023-02-06T02:48:51.912Z,2.65
2023-02-06T02:51:21.924Z,1.95
2023-02-06T02:56:20.225Z,3.15
2023-02-06T02:58:52.108Z,3.85
2023-02-06T03:01:22.872Z,3.20
2023-02-06T03:03:53.158Z,2.67
2023-02-06T03:06:41.590Z,3.60
2023-02-06T03:09:13.396Z,2.45
2023-02-06T03:11:48.044Z,4.28
2023-02-06T03:14:22.653Z,2.63
2023-02-06T03:16:55.670Z,3.78
2023-02-06T03:19:28.840Z,2.67
2023-02-06T03:21:58.469Z,1.73
2023-02-06T03:24:30.248Z,2.60
2023-02-06T03:27:02.772Z,2.63
2023-02-06T03:29:33.073Z,3.63
2023-02-06T03:32:04.428Z,3.83
2023-02-06T03:34:39.417Z,2.38
2023-02-06T03:37:09.314Z,3.10
2023-02-06T03:39:37.885Z,2.40
2023-02-06T03:42:07.664Z,4.07
2023-02-06T03:44:40.840Z,2.95
2023-02-06T03:47:10.090Z,3.55
2023-02-06T03:49:40.970Z,2.77
2023-02-06T03:52:14.219Z,3.15
2023-02-06T03:54:54.268Z,2.78
2023-02-06T03:59:51.642Z,2.13
2023-02-06T04:02:22.030Z,5.57
2023-02-06T04:04:50.466Z,2.72
2023-02-06T04:07:23.371Z,2.03
2023-02-06T04:09:51.770Z,2.65
2023-02-06T04:12:20.446Z,2.85
2023-02-06T04:14:48.884Z,1.90
2023-02-06T04:17:36.166Z,2.70
2023-02-06T04:20:06.041Z,4.38
2023-02-06T04:22:35.542Z,3.60
2023-02-06T04:25:03.941Z,2.10
2023-02-06T04:27:32.329Z,2.53
2023-02-06T04:30:01.507Z,2.28
2023-02-06T04:32:29.953Z,2.67
2023-02-06T04:34:58.342Z,3.20
2023-02-06T04:37:26.783Z,3.38
2023-02-06T04:39:56.522Z,2.80
2023-02-06T04:42:24.921Z,3.05
2023-02-06T04:44:53.312Z,1.60
2023-02-06T04:47:21.702Z,4.40
2023-02-06T04:49:50.241Z,2.25
2023-02-06T04:52:18.710Z,3.15
2023-02-06T04:54:47.077Z,2.35
2023-02-06T04:57:16.612Z,3.35
2023-02-06T04:59:45.028Z,2.17
2023-02-06T05:02:13.437Z,2.08
2023-02-06T05:04:41.889Z,2.42
2023-02-06T05:07:10.256Z,2.95
2023-02-06T05:09:38.640Z,3.08
2023-02-06T05:12:07.101Z,3.72
2023-02-06T05:14:36.856Z,4.80
2023-02-06T05:17:05.380Z,3.67
2023-02-06T05:19:33.769Z,5.05
2023-02-06T05:22:02.123Z,4.85
2023-02-06T05:24:30.801Z,3.70
2023-02-06T05:26:59.180Z,5.22
2023-02-06T05:29:27.712Z,3.55
2023-02-06T05:31:57.231Z,2.85
2023-02-06T05:34:25.737Z,4.63
2023-02-06T05:36:54.121Z,4.60
2023-02-06T05:39:22.526Z,4.50
2023-02-06T05:41:50.936Z,3.88
2023-02-06T05:44:19.331Z,3.33
2023-02-06T05:46:48.655Z,6.53
2023-02-06T05:49:18.682Z,7.13
2023-02-06T05:54:18.419Z,8.75
2023-02-06T05:56:47.067Z,6.38
2023-02-06T05:59:15.699Z,6.15
2023-02-06T06:01:43.803Z,4.82
2023-02-06T06:04:12.300Z,4.28
2023-02-06T06:06:42.103Z,5.90
2023-02-06T06:09:10.505Z,5.78
2023-02-06T06:11:38.919Z,8.73
2023-02-06T06:14:08.585Z,4.25
2023-02-06T06:16:36.940Z,5.63
2023-02-06T06:19:05.356Z,4.50
2023-02-06T06:21:34.048Z,4.45
2023-02-06T06:24:04.020Z,4.78
2023-02-06T06:26:32.615Z,4.32
2023-02-06T06:29:01.004Z,3.55
2023-02-06T06:31:29.404Z,4.18
2023-02-06T06:33:57.957Z,3.47
2023-02-06T06:36:26.308Z,4.05
2023-02-06T06:38:54.698Z,5.10
2023-02-06T06:41:24.302Z,4.07
2023-02-06T06:43:52.741Z,2.70
2023-02-06T06:46:21.104Z,2.85
2023-02-06T06:48:49.507Z,3.95
2023-02-06T06:51:17.935Z,4.05
2023-02-06T06:53:46.327Z,3.13
2023-02-06T06:56:16.014Z,4.68
2023-02-06T06:58:45.784Z,2.55
2023-02-06T07:01:14.948Z,3.00
2023-02-06T07:03:44.256Z,2.87
2023-02-06T07:06:12.914Z,3.40
2023-02-06T07:08:42.102Z,3.13
2023-02-06T07:11:10.571Z,2.70
2023-02-06T07:13:39.415Z,2.35
2023-02-06T07:16:09.690Z,3.35
2023-02-06T07:18:39.894Z,3.88
2023-02-06T07:21:09.821Z,3.63
2023-02-06T07:23:38.427Z,2.58
2023-02-06T07:26:07.239Z,3.00
2023-02-06T07:28:35.861Z,1.67
2023-02-06T07:31:04.609Z,3.10
2023-02-06T07:33:34.096Z,2.00
2023-02-06T07:36:04.196Z,2.83
2023-02-06T07:38:32.916Z,2.88
2023-02-06T07:41:02.756Z,1.65
2023-02-06T07:43:31.410Z,2.58
2023-02-06T07:46:01.136Z,2.63
2023-02-06T07:48:29.626Z,2.28
2023-02-06T07:50:59.738Z,2.83
2023-02-06T07:55:56.110Z,2.20
2023-02-06T07:58:24.542Z,2.35
2023-02-06T08:00:54.759Z,3.53
2023-02-06T08:03:23.144Z,1.80
2023-02-06T08:05:51.536Z,2.67
2023-02-06T08:08:20.985Z,1.77
2023-02-06T08:10:49.608Z,1.50
2023-02-06T08:13:18.308Z,2.40
2023-02-06T08:15:46.702Z,2.35
2023-02-06T08:18:15.053Z,3.05
2023-02-06T08:20:43.468Z,1.92
2023-02-06T08:23:11.830Z,1.42
2023-02-06T08:25:41.337Z,2.53
2023-02-06T08:28:10.144Z,2.47
2023-02-06T08:30:38.379Z,1.98
2023-02-06T08:33:06.775Z,1.98
2023-02-06T08:35:35.681Z,2.10
2023-02-06T08:38:03.950Z,1.42
2023-02-06T08:40:32.334Z,1.55
2023-02-06T08:43:02.129Z,1.95
2023-02-06T08:45:30.534Z,1.67
2023-02-06T08:47:58.904Z,2.30
2023-02-06T08:50:27.298Z,1.83
2023-02-06T08:52:55.364Z,1.35
2023-02-06T08:55:25.239Z,1.63
2023-02-06T09:00:23.547Z,2.22
2023-02-06T09:02:53.704Z,2.03
2023-02-06T09:05:22.155Z,2.25
2023-02-06T09:07:50.674Z,2.35
2023-02-06T09:10:27.434Z,2.13
2023-02-06T09:12:56.154Z,2.30
2023-02-06T09:15:25.706Z,1.55
2023-02-06T09:17:53.885Z,1.63
2023-02-06T09:20:22.599Z,1.92
2023-02-06T09:22:51.113Z,1.80
2023-02-06T09:25:19.276Z,1.27
2023-02-06T09:27:47.636Z,2.63
2023-02-06T09:30:16.587Z,1.50
2023-02-06T09:32:46.191Z,1.60
2023-02-06T09:35:14.315Z,1.30
2023-02-06T09:37:42.726Z,2.47
2023-02-06T09:40:13.553Z,2.17
2023-02-06T09:42:42.609Z,1.15
2023-02-06T09:45:15.951Z,1.55
2023-02-06T09:47:49.065Z,2.05
2023-02-06T09:50:25.288Z,2.03
2023-02-06T09:53:05.845Z,1.33
2023-02-06T09:55:40.680Z,2.97
2023-02-06T09:58:20.233Z,1.63
2023-02-06T10:00:54.408Z,2.95
2023-02-06T10:03:40.700Z,5.63
2023-02-06T10:06:14.392Z,5.82
2023-02-06T10:08:45.396Z,5.45
2023-02-06T10:11:20.806Z,4.63
2023-02-06T10:13:54.044Z,4.25
2023-02-06T10:16:35.548Z,3.03
2023-02-06T10:19:10.681Z,4.22
2023-02-06T10:21:42.186Z,3.50
2023-02-06T10:24:17.415Z,4.43
2023-02-06T10:26:47.979Z,2.67
2023-02-06T10:29:21.115Z,3.15
2023-02-06T10:32:00.665Z,2.30
2023-02-06T10:34:57.207Z,2.63
2023-02-06T10:37:39.429Z,2.65
2023-02-06T10:40:30.775Z,2.90
2023-02-06T10:43:03.230Z,3.08
2023-02-06T10:45:44.845Z,3.00
2023-02-06T10:48:28.714Z,2.10
2023-02-06T10:51:04.983Z,2.50
2023-02-06T10:53:36.552Z,2.63
2023-02-06T10:56:07.902Z,3.13
2023-02-06T10:58:41.035Z,2.47
2023-02-06T11:01:25.119Z,3.38
2023-02-06T11:03:59.470Z,2.75
2023-02-06T11:06:31.013Z,1.83
2023-02-06T11:08:59.518Z,2.08
2023-02-06T11:11:29.871Z,2.13
2023-02-06T11:14:02.582Z,2.28
2023-02-06T11:16:32.041Z,2.85
2023-02-06T11:19:09.784Z,2.20
2023-02-06T11:21:52.229Z,1.85
2023-02-06T11:24:23.595Z,2.42
2023-02-06T11:26:56.101Z,1.75
2023-02-06T11:29:28.146Z,2.05
2023-02-06T11:31:58.878Z,1.38
2023-02-06T11:34:32.216Z,1.60
2023-02-06T11:37:03.973Z,1.60
2023-02-06T11:39:33.837Z,2.38
2023-02-06T11:42:04.089Z,1.48
2023-02-06T11:44:37.888Z,1.33
2023-02-06T11:47:29.333Z,2.28
2023-02-06T11:49:58.806Z,2.13
2023-02-06T11:52:34.553Z,1.67
2023-02-06T11:55:03.015Z,1.60
2023-02-06T11:57:33.701Z,2.55
2023-02-06T12:00:19.684Z,1.30
2023-02-06T12:02:55.145Z,1.63
2023-02-06T12:05:26.661Z,1.35
2023-02-06T12:08:00.143Z,1.88
2023-02-06T12:10:29.981Z,3.17
2023-02-06T12:13:03.442Z,3.03
2023-02-06T12:15:46.556Z,1.33
2023-02-06T12:18:17.789Z,1.70
2023-02-06T12:20:51.441Z,1.88
2023-02-06T12:23:25.768Z,2.33
2023-02-06T12:25:57.655Z,2.00
2023-02-06T12:28:30.169Z,1.83
2023-02-06T12:31:01.246Z,1.83
2023-02-06T12:33:36.229Z,1.67
2023-02-06T12:36:11.157Z,1.60
2023-02-06T12:38:46.789Z,2.17
2023-02-06T12:41:47.868Z,2.90
2023-02-06T12:44:32.463Z,1.98
2023-02-06T12:47:06.486Z,2.22
2023-02-06T12:49:48.118Z,1.80
2023-02-06T12:52:21.623Z,1.50
2023-02-06T12:54:54.749Z,2.80
2023-02-06T12:57:24.744Z,1.85
2023-02-06T13:03:08.734Z,2.35
2023-02-06T13:05:40.052Z,2.30
2023-02-06T13:08:12.073Z,1.80
2023-02-06T13:10:42.183Z,2.05
2023-02-06T13:13:27.337Z,2.03
2023-02-06T13:15:57.659Z,2.33
2023-02-06T13:18:52.645Z,3.08
2023-02-06T13:21:24.887Z,2.03
2023-02-06T13:24:14.590Z,2.45
2023-02-06T13:27:12.974Z,2.67
2023-02-06T13:29:42.986Z,2.85
2023-02-06T13:32:53.344Z,2.20
2023-02-06T13:35:25.636Z,2.70
2023-02-06T13:38:12.617Z,5.68
2023-02-06T13:40:40.766Z,5.43
2023-02-06T13:43:18.569Z,4.63
2023-02-06T13:45:52.003Z,4.53
2023-02-06T13:48:46.796Z,5.43
2023-02-06T13:51:48.494Z,4.60
2023-02-06T13:54:58.326Z,3.67
2023-02-06T13:58:07.041Z,5.28
2023-02-06T14:00:41.923Z,3.92
2023-02-06T14:03:17.248Z,4.40
2023-02-06T14:05:55.158Z,4.53
2023-02-06T14:08:31.822Z,4.28
2023-02-06T14:11:24.335Z,4.55
2023-02-06T14:14:17.682Z,4.90
2023-02-06T14:16:56.474Z,3.63
2023-02-06T14:19:32.367Z,5.05
2023-02-06T14:22:09.595Z,6.00
2023-02-06T14:25:04.241Z,4.68
2023-02-06T14:27:45.939Z,6.07
2023-02-06T14:30:25.112Z,10.82
2023-02-06T14:33:05.749Z,7.63
2023-02-06T14:35:46.495Z,5.50
2023-02-06T14:38:45.151Z,4.95
2023-02-06T14:41:13.578Z,5.10
2023-02-06T14:43:45.349Z,4.50
2023-02-06T14:46:16.572Z,5.03
2023-02-06T14:48:50.372Z,5.95
2023-02-06T14:51:26.181Z,7.15
2023-02-06T14:53:57.034Z,4.72
2023-02-06T14:56:31.423Z,5.22
2023-02-06T14:59:15.849Z,6.60
2023-02-06T15:01:46.914Z,5.28
2023-02-06T15:04:19.096Z,5.57
2023-02-06T15:06:53.707Z,5.22
2023-02-06T15:09:30.479Z,5.38
2023-02-06T15:12:01.033Z,5.47
2023-02-06T15:14:31.484Z,6.68
2023-02-06T15:17:00.997Z,4.68
2023-02-06T15:19:32.515Z,5.30
2023-02-06T15:22:03.167Z,5.40
2023-02-06T15:24:43.461Z,5.22
2023-02-06T15:27:19.830Z,5.28
2023-02-06T15:29:50.701Z,4.68
2023-02-06T15:32:26.168Z,4.25
2023-02-06T15:34:55.999Z,3.80
2023-02-06T15:37:26.986Z,2.92
2023-02-06T15:39:55.810Z,4.20
2023-02-06T15:42:24.470Z,6.95
2023-02-06T15:44:53.253Z,4.60
2023-02-06T15:47:22.431Z,4.78
2023-02-06T15:49:53.230Z,5.23
2023-02-06T15:52:47.126Z,4.38
2023-02-06T15:55:27.188Z,11.13
2023-02-06T15:57:57.000Z,12.15
2023-02-06T16:00:28.580Z,8.45
2023-02-06T16:03:02.791Z,9.20
2023-02-06T16:05:35.072Z,8.35
2023-02-06T16:08:10.883Z,12.52
2023-02-06T16:10:40.466Z,9.52
2023-02-06T16:13:12.141Z,8.10
2023-02-06T16:15:41.182Z,10.48
2023-02-06T16:18:27.679Z,14.13
2023-02-06T16:21:12.517Z,12.00
2023-02-06T16:23:51.680Z,9.43
2023-02-06T16:26:22.795Z,8.70
2023-02-06T16:29:00.420Z,9.45
2023-02-06T16:31:30.982Z,8.27
2023-02-06T16:34:03.333Z,8.02
2023-02-06T16:36:33.594Z,12.27
2023-02-06T16:39:04.702Z,9.35
2023-02-06T16:41:35.042Z,8.43
2023-02-06T16:44:04.838Z,7.72
2023-02-06T16:46:32.978Z,8.65
2023-02-06T16:49:01.366Z,8.00
2023-02-06T16:51:31.112Z,7.13
2023-02-06T16:53:59.755Z,8.15
2023-02-06T16:56:29.269Z,9.82
2023-02-06T16:58:57.343Z,10.85
2023-02-06T17:01:29.485Z,8.85
2023-02-06T17:03:57.747Z,10.15
2023-02-06T17:06:28.294Z,11.63
2023-02-06T17:08:58.871Z,9.38
2023-02-06T17:11:28.349Z,11.60
2023-02-06T17:13:56.681Z,8.73
2023-02-06T17:16:26.461Z,10.25
2023-02-06T17:18:55.158Z,9.65
2023-02-06T17:21:24.915Z,10.55
2023-02-06T17:23:53.210Z,11.98
2023-02-06T17:26:23.976Z,8.52
2023-02-06T17:28:53.646Z,7.18
2023-02-06T17:31:21.896Z,8.55
2023-02-06T17:33:50.264Z,7.18
2023-02-06T17:36:22.397Z,10.60
2023-02-06T17:38:50.580Z,9.20
2023-02-06T17:41:18.664Z,9.32
2023-02-06T17:43:46.767Z,9.07
2023-02-06T17:46:16.308Z,8.77
2023-02-06T17:48:44.612Z,7.63
2023-02-06T17:51:12.824Z,6.43
2023-02-06T17:53:40.958Z,8.32
2023-02-06T17:56:12.698Z,6.93
2023-02-06T17:58:41.549Z,7.00
2023-02-06T18:01:12.764Z,8.77
2023-02-06T18:03:42.709Z,7.93
2023-02-06T18:06:11.745Z,8.35
2023-02-06T18:08:40.718Z,8.70
2023-02-06T18:11:11.487Z,8.85
2023-02-06T18:13:40.218Z,6.53
2023-02-06T18:16:12.142Z,8.15
2023-02-06T18:18:41.720Z,5.50
2023-02-06T18:21:09.829Z,8.38
2023-02-06T18:23:38.382Z,6.43
2023-02-06T18:26:09.271Z,6.43
2023-02-06T18:28:40.724Z,8.15
2023-02-06T18:31:25.589Z,7.50
2023-02-06T18:33:55.836Z,6.15
2023-02-06T18:36:24.679Z,6.00
2023-02-06T18:38:53.102Z,6.85
2023-02-06T18:41:35.196Z,7.65
2023-02-06T18:44:03.976Z,6.22
2023-02-06T18:46:32.177Z,6.93
2023-02-06T18:49:01.818Z,6.35
2023-02-06T18:51:30.732Z,6.43
2023-02-06T18:53:59.158Z,6.03
2023-02-06T18:56:27.556Z,9.65
2023-02-06T18:58:55.823Z,11.10
2023-02-06T19:01:25.829Z,11.60
2023-02-06T19:06:28.928Z,6.82
2023-02-06T19:08:57.237Z,8.95
2023-02-06T19:11:25.459Z,9.55
2023-02-06T19:13:54.040Z,7.82
2023-02-06T19:16:22.665Z,8.05
2023-02-06T19:18:51.280Z,9.25
2023-02-06T19:21:21.707Z,10.75
2023-02-06T19:23:58.724Z,9.23
2023-02-06T19:26:28.311Z,9.25
2023-02-06T19:28:56.989Z,8.20
2023-02-06T19:31:26.044Z,8.07
2023-02-06T19:33:56.154Z,8.33
2023-02-06T19:36:25.982Z,9.45
2023-02-06T19:38:58.676Z,7.85
2023-02-06T19:41:29.178Z,6.20
2023-02-06T19:43:58.545Z,7.47
2023-02-06T19:46:28.528Z,9.50
2023-02-06T19:51:27.767Z,6.63
2023-02-06T19:53:58.189Z,7.20
2023-02-06T19:56:30.389Z,5.32
2023-02-06T19:59:00.256Z,6.65
2023-02-06T20:01:30.367Z,6.20
2023-02-06T20:04:00.260Z,6.60
2023-02-06T20:06:34.868Z,5.93
2023-02-06T20:09:06.080Z,6.15
2023-02-06T20:11:35.148Z,6.30
2023-02-06T20:14:03.287Z,7.78
2023-02-06T20:16:34.496Z,4.90
2023-02-06T20:19:08.848Z,5.32
2023-02-06T20:21:39.704Z,6.53
2023-02-06T20:24:10.336Z,6.32
2023-02-06T20:26:40.647Z,5.43
2023-02-06T20:29:10.051Z,5.70
2023-02-06T20:31:38.379Z,4.57
2023-02-06T20:34:06.570Z,4.55
2023-02-06T20:36:34.665Z,4.57
2023-02-06T20:39:02.810Z,5.18
2023-02-06T20:41:33.092Z,10.60
2023-02-06T20:44:02.302Z,5.13
2023-02-06T20:46:32.703Z,5.60
2023-02-06T20:49:02.409Z,5.13
2023-02-06T20:51:31.686Z,5.22
2023-02-06T20:54:00.110Z,5.87
2023-02-06T20:56:28.420Z,6.57
2023-02-06T20:58:58.351Z,5.03
2023-02-06T21:01:28.179Z,7.10
2023-02-06T21:03:59.076Z,4.05
2023-02-06T21:06:28.033Z,4.15
2023-02-06T21:08:59.977Z,5.13
2023-02-06T21:11:30.787Z,9.43
2023-02-06T21:14:02.695Z,4.57
2023-02-06T21:16:32.690Z,5.32
2023-02-06T21:21:29.965Z,5.65
2023-02-06T21:23:58.072Z,4.72
2023-02-06T21:26:27.144Z,4.38
2023-02-06T21:28:55.353Z,4.38
2023-02-06T21:31:32.982Z,3.90
2023-02-06T21:34:07.057Z,5.75
2023-02-06T21:36:37.005Z,5.93
2023-02-06T21:39:06.056Z,4.60
2023-02-06T21:41:34.163Z,6.23
2023-02-06T21:44:02.609Z,5.05
2023-02-06T21:46:32.167Z,5.75
2023-02-06T21:49:00.600Z,5.95
2023-02-06T21:51:29.010Z,6.28
2023-02-06T21:53:57.243Z,11.20
2023-02-06T21:56:28.217Z,6.40
2023-02-06T21:58:57.282Z,6.47
2023-02-06T22:01:29.441Z,7.70
2023-02-06T22:03:59.692Z,7.47
2023-02-06T22:06:28.917Z,7.22
2023-02-06T22:09:04.499Z,6.60
2023-02-06T22:11:33.164Z,7.05
2023-02-06T22:14:03.833Z,6.03
2023-02-06T22:16:32.262Z,7.55
2023-02-06T22:19:01.865Z,5.93
2023-02-06T22:21:31.666Z,5.35
2023-02-06T22:24:01.496Z,5.25
2023-02-06T22:26:31.183Z,6.50
2023-02-06T22:28:59.963Z,4.85
2023-02-06T22:31:29.780Z,6.20
2023-02-06T22:33:59.154Z,5.28
2023-02-06T22:36:30.125Z,5.35
2023-02-06T22:39:00.240Z,4.65
2023-02-06T22:43:57.182Z,6.60
2023-02-06T22:46:26.290Z,4.43
2023-02-06T22:48:54.733Z,6.30
2023-02-06T22:51:23.124Z,4.57
2023-02-06T22:53:52.618Z,5.75
2023-02-06T22:56:31.386Z,6.43
2023-02-06T22:59:02.250Z,6.20
2023-02-06T23:01:33.170Z,4.20
2023-02-06T23:04:02.692Z,5.93
2023-02-06T23:06:32.134Z,3.90
2023-02-06T23:09:03.169Z,5.40
2023-02-06T23:11:32.567Z,6.10
2023-02-06T23:14:05.577Z,3.65
2023-02-06T23:16:35.812Z,3.45
2023-02-06T23:19:05.923Z,4.72
2023-02-06T23:24:04.814Z,3.67
2023-02-06T23:29:02.975Z,4.93
2023-02-06T23:31:31.424Z,4.38
2023-02-06T23:33:59.830Z,4.38
2023-02-06T23:36:29.599Z,3.47
2023-02-06T23:38:58.005Z,5.38
2023-02-06T23:41:28.955Z,3.63
2023-02-06T23:43:58.712Z,3.83
2023-02-06T23:46:27.398Z,3.72
2023-02-06T23:48:55.774Z,3.72
2023-02-06T23:51:24.703Z,5.03
2023-02-06T23:53:53.566Z,3.80
2023-02-06T23:56:23.633Z,4.55
